Time;durP1;ratioP1;P1;durP2;ratioP2;P2;SDS_P1;SDS_P2;PMS_P1;PMS_P2;Temp;Humidity;BMP_temperature;BMP_pressure;BME280_temperature;BME280_humidity;BME280_pressure;Samples;Min_cycle;Max_cycle;Signal;HPM_P1;HPM_P2
2022/10/14 00:01:31;;;;;;;1.55;1.45;;;;;;;12.62;nan;-24169.47;5073448;28;20589;-75
2022/10/14 00:03:58;;;;;;;1.73;1.40;;;;;;;12.75;nan;-24172.97;5091685;28;20554;-75
2022/10/14 00:06:27;;;;;;;1.88;1.30;;;;;;;12.59;nan;-24168.63;5091752;28;20625;-74
2022/10/14 00:08:52;;;;;;;1.75;1.40;;;;;;;12.63;nan;-24169.59;5090688;28;20668;-74
2022/10/14 00:11:21;;;;;;;1.40;1.30;;;;;;;12.63;nan;-24169.75;5090151;28;20369;-74
2022/10/14 00:13:47;;;;;;;1.40;1.30;;;;;;;12.35;nan;-24162.00;5091577;28;20234;-74
2022/10/14 00:16:34;;;;;;;1.60;1.50;;;;;;;12.52;nan;-24166.50;5091420;28;20173;-74
2022/10/14 00:19:00;;;;;;;1.35;1.25;;;;;;;12.37;nan;-24162.56;5091450;28;20172;-74
2022/10/14 00:21:27;;;;;;;1.52;1.30;;;;;;;12.36;nan;-24162.16;5091020;28;20173;-75
2022/10/14 00:23:52;;;;;;;1.40;1.30;;;;;;;12.62;nan;-24169.47;5086236;28;20279;-75
2022/10/14 00:26:29;;;;;;;2.13;1.50;;;;;;;12.57;nan;-24168.06;5071094;28;20669;-74
2022/10/14 00:28:55;;;;;;;3.28;1.80;;;;;;;12.43;nan;-24164.13;5071198;28;20661;-75
2022/10/14 00:31:21;;;;;;;2.28;1.73;;;;;;;11.79;nan;-24146.25;5071409;28;20170;-75
2022/10/14 00:33:47;;;;;;;1.60;1.50;;;;;;;12.69;nan;-24171.28;5070928;28;20176;-75
2022/10/14 00:36:15;;;;;;;1.70;1.60;;;;;;;12.42;nan;-24163.84;5069635;28;20185;-75
2022/10/14 00:38:41;;;;;;;1.40;1.30;;;;;;;12.54;nan;-24167.06;5070614;28;20271;-74
2022/10/14 00:41:10;;;;;;;1.55;1.45;;;;;;;12.65;nan;-24170.16;5070716;28;20637;-74
2022/10/14 00:44:01;;;;;;;2.72;1.40;;;;;;;12.77;nan;-24173.69;5068733;28;20166;-75
2022/10/14 00:46:29;;;;;;;1.95;1.65;;;;;;;12.67;nan;-24170.88;5070169;28;20692;-74
2022/10/14 00:48:57;;;;;;;1.40;1.30;;;;;;;10.41;nan;-24107.88;5070558;28;20201;-74
2022/10/14 00:51:23;;;;;;;1.48;1.33;;;;;;;12.59;nan;-24168.63;5070839;28;20706;-75
2022/10/14 00:53:48;;;;;;;1.60;1.50;;;;;;;12.40;nan;-24163.28;5070739;28;20170;-75
2022/10/14 00:56:18;;;;;;;1.92;1.40;;;;;;;12.71;nan;-24172.00;5070855;28;20178;-75
2022/10/14 00:58:44;;;;;;;1.60;1.30;;;;;;;12.43;nan;-24163.97;5070570;28;20266;-75
2022/10/14 01:01:10;;;;;;;1.58;1.48;;;;;;;12.72;nan;-24172.13;5070367;28;20256;-74
2022/10/14 01:03:36;;;;;;;1.65;1.42;;;;;;;12.32;nan;-24161.16;5070140;28;20178;-74
2022/10/14 01:06:10;;;;;;;2.00;1.80;;;;;;;12.72;nan;-24172.13;5070288;28;20253;-74
2022/10/14 01:08:48;;;;;;;1.77;1.58;;;;;;;12.56;nan;-24167.63;5069266;28;20189;-74
2022/10/14 01:11:43;;;;;;;1.42;1.30;;;;;;;12.60;nan;-24168.75;5072749;28;20223;-75
2022/10/14 01:14:24;;;;;;;1.67;1.58;;;;;;;12.69;nan;-24171.44;5074616;28;20308;-74
2022/10/14 01:17:21;;;;;;;1.52;1.33;;;;;;;11.92;nan;-24149.91;5075032;28;20629;-74
2022/10/14 01:20:05;;;;;;;1.70;1.50;;;;;;;12.68;nan;-24171.16;5050536;28;20189;-74
2022/10/14 01:22:35;;;;;;;1.60;1.45;;;;;;;12.60;nan;-24168.75;5077160;28;20259;-75
2022/10/14 01:25:18;;;;;;;2.33;1.30;;;;;;;12.62;nan;-24169.31;5076069;28;20194;-76
2022/10/14 01:28:11;;;;;;;2.05;1.63;;;;;;;12.61;nan;-24169.03;5095030;28;20581;-75
2022/10/14 01:30:44;;;;;;;10.93;1.73;;;;;;;11.81;nan;-24146.94;5076037;28;20225;-74
2022/10/14 01:33:22;;;;;;;1.73;1.50;;;;;;;12.52;nan;-24166.66;5094259;28;20574;-74
2022/10/14 01:35:58;;;;;;;1.33;1.23;;;;;;;12.59;nan;-24168.63;5076226;28;20177;-75
2022/10/14 01:38:34;;;;;;;1.60;1.35;;;;;;;12.40;nan;-24163.28;5094291;28;20193;-75
2022/10/14 01:41:06;;;;;;;1.80;1.13;;;;;;;12.70;nan;-24171.56;5094745;28;20168;-75
2022/10/14 01:43:33;;;;;;;1.52;1.42;;;;;;;12.53;nan;-24166.78;5094489;28;20315;-75
2022/10/14 01:46:02;;;;;;;1.70;1.52;;;;;;;12.43;nan;-24163.97;5094311;28;20242;-75
2022/10/14 01:48:32;;;;;;;1.50;1.40;;;;;;;12.32;nan;-24161.03;5094204;28;20186;-74
2022/10/14 01:51:01;;;;;;;2.45;1.60;;;;;;;12.34;nan;-24161.59;5094097;28;20196;-74
2022/10/14 01:53:35;;;;;;;1.45;1.35;;;;;;;12.59;nan;-24168.63;5075729;28;20264;-74
2022/10/14 01:56:02;;;;;;;1.52;1.42;;;;;;;12.64;nan;-24169.88;5093958;28;20169;-74
2022/10/14 01:58:30;;;;;;;1.30;1.20;;;;;;;12.58;nan;-24168.19;5094214;28;20205;-75
2022/10/14 02:00:56;;;;;;;1.60;1.50;;;;;;;12.69;nan;-24171.44;5093475;28;20515;-74
2022/10/14 02:03:22;;;;;;;1.45;1.35;;;;;;;12.71;nan;-24171.84;5093174;28;20177;-74
2022/10/14 02:05:52;;;;;;;1.30;1.20;;;;;;;12.34;nan;-24161.72;5076123;28;20198;-74
2022/10/14 02:08:51;;;;;;;1.40;1.30;;;;;;;12.72;nan;-24172.28;5093613;28;20193;-74
2022/10/14 02:11:18;;;;;;;2.95;1.45;;;;;;;12.39;nan;-24163.00;5093376;28;20637;-75
2022/10/14 02:14:21;;;;;;;1.33;1.23;;;;;;;12.78;nan;-24173.81;5075316;28;20165;-74
2022/10/14 02:17:27;;;;;;;1.30;1.20;;;;;;;12.84;nan;-24175.50;5075372;28;20173;-75
2022/10/14 02:19:57;;;;;;;1.30;1.20;;;;;;;12.85;nan;-24175.94;5082869;28;20304;-75
2022/10/14 02:22:36;;;;;;;2.38;1.30;;;;;;;12.42;nan;-24163.69;5093157;28;20201;-75
2022/10/14 02:25:14;;;;;;;1.40;1.30;;;;;;;12.72;nan;-24172.13;5093852;28;20211;-76
2022/10/14 02:27:43;;;;;;;1.30;1.20;;;;;;;12.44;nan;-24164.25;5093410;28;20637;-75
2022/10/14 02:30:09;;;;;;;1.55;1.40;;;;;;;12.36;nan;-24162.28;5093467;28;20193;-75
2022/10/14 02:32:38;;;;;;;1.40;1.30;;;;;;;12.85;nan;-24175.78;5093188;28;20174;-75
2022/10/14 02:35:08;;;;;;;1.83;1.38;;;;;;;12.76;nan;-24173.41;5092425;28;20165;-75
2022/10/14 02:37:35;;;;;;;1.48;1.38;;;;;;;12.46;nan;-24164.81;5093256;28;20203;-76
2022/10/14 02:40:15;;;;;;;1.25;1.15;;;;;;;12.68;nan;-24171.16;5093225;28;20177;-75
2022/10/14 02:42:40;;;;;;;1.23;1.20;;;;;;;12.54;nan;-24167.06;5093431;28;20179;-75
2022/10/14 02:45:08;;;;;;;1.85;1.52;;;;;;;12.43;nan;-24163.97;5093121;28;20174;-75
2022/10/14 02:47:33;;;;;;;1.50;1.40;;;;;;;12.66;nan;-24170.44;5092979;28;20201;-75
2022/10/14 02:49:58;;;;;;;1.80;1.48;;;;;;;12.42;nan;-24163.84;5092996;28;20683;-75
2022/10/14 02:52:24;;;;;;;1.90;1.17;;;;;;;12.60;nan;-24168.75;5092943;28;20170;-73
2022/10/14 02:54:49;;;;;;;1.77;1.40;;;;;;;12.83;nan;-24175.22;5092992;28;20185;-75
2022/10/14 02:57:15;;;;;;;1.40;1.30;;;;;;;12.36;nan;-24162.28;5074666;28;20217;-74
2022/10/14 02:59:40;;;;;;;1.80;1.50;;;;;;;12.30;nan;-24160.59;5092204;28;20196;-74
2022/10/14 03:02:06;;;;;;;1.30;1.20;;;;;;;12.70;nan;-24171.72;5092943;28;20169;-75
2022/10/14 03:04:33;;;;;;;1.30;1.20;;;;;;;12.88;nan;-24176.63;5092713;28;20173;-74
2022/10/14 03:06:58;;;;;;;1.40;1.30;;;;;;;12.37;nan;-24162.44;5092597;28;20181;-75
2022/10/14 03:09:24;;;;;;;1.50;1.40;;;;;;;12.52;nan;-24166.66;5093523;28;20200;-75
2022/10/14 03:11:49;;;;;;;1.30;1.20;;;;;;;12.80;nan;-24174.38;5092710;28;20628;-75
2022/10/14 03:14:15;;;;;;;1.90;1.30;;;;;;;12.94;nan;-24178.31;5073965;28;20217;-75
2022/10/14 03:16:40;;;;;;;1.45;1.35;;;;;;;12.84;nan;-24175.50;5092616;28;20260;-74
2022/10/14 03:19:05;;;;;;;1.52;1.35;;;;;;;12.38;nan;-24162.84;5079603;28;20185;-75
2022/10/14 03:21:32;;;;;;;1.60;1.50;;;;;;;12.63;nan;-24169.75;5070094;28;20358;-75
2022/10/14 03:23:57;;;;;;;1.42;1.33;;;;;;;12.31;nan;-24160.88;5077559;28;20302;-75
2022/10/14 03:26:23;;;;;;;2.10;1.30;;;;;;;12.69;nan;-24171.28;5080624;28;20594;-74
2022/10/14 03:28:48;;;;;;;1.40;1.30;;;;;;;12.34;nan;-24161.59;5075996;28;20232;-74
2022/10/14 03:31:14;;;;;;;1.35;1.25;;;;;;;12.66;nan;-24170.59;5076654;28;20173;-74
2022/10/14 03:33:39;;;;;;;1.55;1.45;;;;;;;12.65;nan;-24170.16;5075171;28;20173;-75
2022/10/14 03:36:05;;;;;;;1.83;1.42;;;;;;;10.42;nan;-24108.16;5079359;28;20535;-76
2022/10/14 03:38:30;;;;;;;1.45;1.35;;;;;;;12.67;nan;-24170.72;5076272;28;20185;-75
2022/10/14 03:40:56;;;;;;;4.43;1.90;;;;;;;12.44;nan;-24164.41;5063443;28;20204;-74
2022/10/14 03:43:22;;;;;;;4.63;1.60;;;;;;;12.72;nan;-24172.13;5075612;28;20173;-74
2022/10/14 03:45:47;;;;;;;1.92;1.58;;;;;;;12.74;nan;-24172.69;5077774;28;20224;-75
2022/10/14 03:48:13;;;;;;;1.17;1.13;;;;;;;12.73;nan;-24172.41;5078398;28;20176;-75
2022/10/14 03:50:38;;;;;;;1.50;1.40;;;;;;;12.32;nan;-24161.16;5076318;28;20174;-74
2022/10/14 03:53:04;;;;;;;1.60;1.50;;;;;;;12.67;nan;-24170.88;5076836;28;20174;-75
2022/10/14 03:55:29;;;;;;;1.80;1.70;;;;;;;12.70;nan;-24171.56;5076947;28;20287;-75
2022/10/14 03:57:55;;;;;;;3.22;1.75;;;;;;;12.60;nan;-24168.75;5077823;28;20185;-74
2022/10/14 04:00:20;;;;;;;1.85;1.73;;;;;;;12.56;nan;-24167.78;5066119;28;20204;-75
2022/10/14 04:02:46;;;;;;;1.70;1.60;;;;;;;12.38;nan;-24162.84;5067128;28;20558;-75
2022/10/14 04:05:12;;;;;;;1.70;1.60;;;;;;;12.50;nan;-24165.94;5082253;28;20177;-74
2022/10/14 04:07:37;;;;;;;1.50;1.40;;;;;;;12.12;nan;-24155.53;5076105;28;20212;-74
2022/10/14 04:10:03;;;;;;;1.70;1.52;;;;;;;12.44;nan;-24164.41;5075015;28;20625;-73
2022/10/14 04:12:29;;;;;;;2.22;2.03;;;;;;;12.24;nan;-24158.78;5065180;28;20185;-75
2022/10/14 04:14:56;;;;;;;1.60;1.50;;;;;;;12.22;nan;-24158.34;5078519;28;20189;-76
2022/10/14 04:17:23;;;;;;;1.60;1.50;;;;;;;12.11;nan;-24155.13;5056333;28;20551;-74
2022/10/14 04:19:48;;;;;;;1.55;1.45;;;;;;;11.99;nan;-24151.72;5065906;28;20295;-75
2022/10/14 04:22:14;;;;;;;1.85;1.48;;;;;;;12.12;nan;-24155.38;5090366;28;20692;-74
2022/10/14 04:24:39;;;;;;;2.55;1.70;;;;;;;12.22;nan;-24158.34;5086672;28;20502;-72
2022/10/14 04:27:04;;;;;;;2.70;1.90;;;;;;;12.10;nan;-24154.97;5094024;28;20223;-74
2022/10/14 04:29:30;;;;;;;1.80;1.70;;;;;;;12.17;nan;-24156.94;5090483;28;20197;-76
2022/10/14 04:31:55;;;;;;;2.58;1.75;;;;;;;12.20;nan;-24157.78;5090871;28;20180;-75
2022/10/14 04:34:21;;;;;;;2.42;2.08;;;;;;;12.26;nan;-24159.47;5072504;28;20177;-75
2022/10/14 04:36:47;;;;;;;2.20;1.90;;;;;;;12.26;nan;-24159.47;5090337;28;20173;-75
2022/10/14 04:39:14;;;;;;;2.35;2.00;;;;;;;12.15;nan;-24156.38;5090317;28;20177;-76
2022/10/14 04:41:40;;;;;;;2.00;1.70;;;;;;;11.95;nan;-24150.75;5089867;28;20191;-75
2022/10/14 04:44:05;;;;;;;2.55;1.70;;;;;;;12.38;nan;-24162.72;5091745;28;20189;-77
2022/10/14 04:46:30;;;;;;;2.28;1.60;;;;;;;12.42;nan;-24163.69;5094091;28;20242;-76
2022/10/14 04:48:56;;;;;;;2.42;1.55;;;;;;;12.45;nan;-24164.69;5093915;28;20198;-76
2022/10/14 04:51:21;;;;;;;2.40;2.10;;;;;;;12.10;nan;-24154.97;5093979;28;20165;-76
2022/10/14 04:53:47;;;;;;;3.25;2.00;;;;;;;12.49;nan;-24165.66;5076822;28;20170;-77
2022/10/14 04:56:12;;;;;;;3.75;2.00;;;;;;;11.49;nan;-24137.94;5093759;28;20177;-75
2022/10/14 04:58:38;;;;;;;2.80;2.17;;;;;;;12.21;nan;-24158.06;5095035;28;20165;-75
2022/10/14 05:01:03;;;;;;;2.42;2.20;;;;;;;12.43;nan;-24163.97;5095411;28;20200;-74
2022/10/14 05:03:29;;;;;;;2.95;1.80;;;;;;;12.47;nan;-24165.09;5093514;28;20193;-75
2022/10/14 05:05:54;;;;;;;2.35;2.00;;;;;;;12.57;nan;-24168.06;5075549;28;20181;-75
2022/10/14 05:08:19;;;;;;;4.30;2.05;;;;;;;12.65;nan;-24170.16;5075971;28;20593;-75
2022/10/14 05:10:47;;;;;;;3.13;2.05;;;;;;;12.82;nan;-24174.94;5075914;28;20507;-75
2022/10/14 05:13:12;;;;;;;2.03;1.60;;;;;;;12.89;nan;-24176.78;5076001;28;20546;-74
2022/10/14 05:15:38;;;;;;;3.30;2.03;;;;;;;12.83;nan;-24175.38;5075428;28;20234;-75
2022/10/14 05:18:03;;;;;;;3.85;1.63;;;;;;;12.97;nan;-24179.16;5094236;28;20169;-74
2022/10/14 05:20:29;;;;;;;1.90;1.73;;;;;;;8.47;nan;-24053.63;5075918;28;20185;-76
2022/10/14 05:22:55;;;;;;;2.00;1.80;;;;;;;13.12;nan;-24183.38;5075800;28;20229;-76
2022/10/14 05:25:20;;;;;;;1.95;1.77;;;;;;;13.39;nan;-24190.69;5075887;28;20173;-75
2022/10/14 05:27:45;;;;;;;5.65;2.00;;;;;;;13.77;nan;-24201.22;5094181;28;20174;-75
2022/10/14 05:30:11;;;;;;;3.42;2.22;;;;;;;14.06;nan;-24209.50;5075745;28;20254;-74
2022/10/14 05:32:37;;;;;;;3.05;2.08;;;;;;;13.70;nan;-24199.41;5074461;28;20181;-76
2022/10/14 05:35:03;;;;;;;2.88;1.75;;;;;;;14.08;nan;-24210.06;5094536;28;20170;-75
2022/10/14 05:37:29;;;;;;;1.90;1.80;;;;;;;14.44;nan;-24219.88;5093958;28;20311;-69
2022/10/14 05:39:54;;;;;;;2.33;1.65;;;;;;;14.44;nan;-24220.03;5094352;28;20625;-69
2022/10/14 05:42:20;;;;;;;3.20;2.20;;;;;;;14.30;nan;-24216.09;5093448;28;20192;-68
2022/10/14 05:44:45;;;;;;;2.17;1.95;;;;;;;14.81;nan;-24230.13;5092961;28;20219;-69
2022/10/14 05:47:11;;;;;;;2.03;1.88;;;;;;;14.95;nan;-24234.03;5093400;28;20174;-68
2022/10/14 05:49:37;;;;;;;2.33;1.92;;;;;;;14.77;nan;-24229.13;5094139;28;20193;-68
2022/10/14 05:52:02;;;;;;;1.98;1.77;;;;;;;14.94;nan;-24233.75;5094333;28;20644;-69
2022/10/14 05:54:28;;;;;;;3.20;1.90;;;;;;;15.31;nan;-24244.00;5094541;28;20268;-70
2022/10/14 05:56:53;;;;;;;4.88;2.72;;;;;;;14.70;nan;-24227.03;5093203;28;20640;-69
2022/10/14 05:59:18;;;;;;;2.45;2.08;;;;;;;15.54;nan;-24250.44;5094502;28;20173;-69
2022/10/14 06:01:44;;;;;;;4.22;1.75;;;;;;;15.66;nan;-24253.66;5094391;28;20169;-70
2022/10/14 06:04:16;;;;;;;3.78;1.98;;;;;;;15.55;nan;-24250.72;5075597;28;20169;-69
2022/10/14 06:06:42;;;;;;;5.13;2.67;;;;;;;15.83;nan;-24258.41;5093907;28;20170;-70
2022/10/14 06:09:07;;;;;;;3.20;2.20;;;;;;;15.87;nan;-24259.66;5093894;28;20196;-69
2022/10/14 06:11:33;;;;;;;3.55;2.67;;;;;;;15.78;nan;-24257.00;5093679;28;21285;-69
2022/10/14 06:13:58;;;;;;;2.42;2.00;;;;;;;15.43;nan;-24247.34;5094062;28;20636;-68
2022/10/14 06:16:24;;;;;;;3.10;2.50;;;;;;;15.38;nan;-24245.94;5094089;28;20264;-68
2022/10/14 06:18:49;;;;;;;3.63;2.30;;;;;;;15.01;nan;-24235.72;5075501;28;20256;-69
2022/10/14 06:21:15;;;;;;;3.78;2.30;;;;;;;15.09;nan;-24237.81;5093443;28;20173;-67
2022/10/14 06:23:40;;;;;;;2.42;2.17;;;;;;;15.46;nan;-24248.34;5093246;28;20221;-68
2022/10/14 06:26:08;;;;;;;6.55;2.30;;;;;;;15.46;nan;-24248.34;5093740;28;20173;-69
2022/10/14 06:28:34;;;;;;;3.63;2.15;;;;;;;15.72;nan;-24255.34;5093661;28;20622;-69
2022/10/14 06:31:00;;;;;;;4.55;2.38;;;;;;;;;;5093371;28;20189;-69
2022/10/14 06:33:27;;;;;;;5.38;2.30;;;;;;;15.45;nan;-24247.91;5093479;28;20226;-69
2022/10/14 06:35:53;;;;;;;3.30;2.17;;;;;;;15.67;nan;-24254.06;5093405;28;20183;-69
2022/10/14 06:38:18;;;;;;;3.65;2.45;;;;;;;16.24;nan;-24269.75;5093459;28;20173;-68
2022/10/14 06:40:43;;;;;;;2.75;2.10;;;;;;;16.14;nan;-24266.94;5092723;28;20645;-69
2022/10/14 06:43:09;;;;;;;3.80;2.20;;;;;;;16.09;nan;-24265.69;5093306;28;20177;-69
2022/10/14 06:45:34;;;;;;;2.83;2.03;;;;;;;15.95;nan;-24261.63;5093154;28;20180;-68
2022/10/14 06:48:00;;;;;;;5.50;2.60;;;;;;;15.83;nan;-24258.56;5093154;28;20178;-69
2022/10/14 06:50:25;;;;;;;5.03;2.45;;;;;;;15.94;nan;-24261.50;5093218;28;20692;-68
2022/10/14 06:52:51;;;;;;;3.00;2.28;;;;;;;16.38;nan;-24273.50;5074623;28;20180;-69
2022/10/14 06:55:16;;;;;;;3.45;2.33;;;;;;;16.40;nan;-24274.22;5092777;28;20166;-68
2022/10/14 06:57:42;;;;;;;2.17;1.90;;;;;;;15.53;nan;-24250.03;5092658;28;20618;-68
2022/10/14 07:00:08;;;;;;;2.53;2.15;;;;;;;16.67;nan;-24281.78;5093034;28;20252;-68
2022/10/14 07:02:36;;;;;;;4.32;2.78;;;;;;;16.94;nan;-24289.16;5093491;28;20185;-69
2022/10/14 07:05:01;;;;;;;2.28;1.75;;;;;;;17.27;nan;-24298.09;5093128;28;20242;-68
2022/10/14 07:07:27;;;;;;;3.80;2.13;;;;;;;16.72;nan;-24283.16;5091672;28;20173;-69
2022/10/14 07:09:53;;;;;;;1.48;1.38;;;;;;;16.28;nan;-24271.00;5092543;28;20197;-68
2022/10/14 07:12:18;;;;;;;2.42;1.65;;;;;;;15.65;nan;-24253.38;5092595;28;20256;-69
2022/10/14 07:14:43;;;;;;;3.92;1.58;;;;;;;16.74;nan;-24283.72;5093096;28;20227;-68
2022/10/14 07:17:09;;;;;;;1.60;1.40;;;;;;;16.73;nan;-24283.31;5074313;28;20181;-68
2022/10/14 07:19:34;;;;;;;2.75;1.90;;;;;;;17.00;nan;-24290.84;5092790;28;20616;-69
2022/10/14 07:22:00;;;;;;;2.17;1.80;;;;;;;17.00;nan;-24290.72;5092852;28;20219;-69
2022/10/14 07:24:25;;;;;;;2.65;1.65;;;;;;;16.70;nan;-24282.59;5092905;28;20221;-69
2022/10/14 07:26:51;;;;;;;2.00;1.60;;;;;;;16.27;nan;-24270.59;5074256;28;20173;-69
2022/10/14 07:29:16;;;;;;;2.20;1.67;;;;;;;16.83;nan;-24285.97;5092238;28;20201;-69
2022/10/14 07:31:42;;;;;;;3.40;1.80;;;;;;;16.70;nan;-24282.59;5092902;28;20177;-69
2022/10/14 07:34:08;;;;;;;2.25;1.73;;;;;;;16.93;nan;-24288.88;5092558;28;20656;-69
2022/10/14 07:36:34;;;;;;;2.55;1.90;;;;;;;16.86;nan;-24286.94;5093087;28;20227;-69
2022/10/14 07:38:59;;;;;;;1.67;1.38;;;;;;;17.29;nan;-24298.66;5073756;28;20710;-69
2022/10/14 07:41:25;;;;;;;1.20;1.10;;;;;;;17.06;nan;-24292.53;5092347;28;20175;-68
2022/10/14 07:43:53;;;;;;;1.33;1.23;;;;;;;17.09;nan;-24293.22;5091839;28;20177;-68
2022/10/14 07:46:28;;;;;;;2.22;1.23;;;;;;;17.23;nan;-24297.13;5092158;28;20172;-68
2022/10/14 07:49:02;;;;;;;1.27;1.17;;;;;;;17.64;nan;-24308.56;5092172;28;20209;-69
2022/10/14 07:51:28;;;;;;;1.92;1.17;;;;;;;18.09;nan;-24320.84;5091909;28;20168;-69
2022/10/14 07:53:56;;;;;;;1.40;1.30;;;;;;;18.24;nan;-24325.03;5092037;28;20181;-68
2022/10/14 07:56:22;;;;;;;1.25;1.15;;;;;;;17.87;nan;-24314.72;5091811;28;20231;-68
2022/10/14 07:58:47;;;;;;;2.25;1.45;;;;;;;17.95;nan;-24316.94;5091906;28;20201;-68
2022/10/14 08:01:14;;;;;;;1.40;1.30;;;;;;;17.69;nan;-24309.84;5092044;28;20214;-68
2022/10/14 08:03:41;;;;;;;2.13;1.10;;;;;;;17.56;nan;-24306.19;5073610;28;20186;-68
2022/10/14 08:06:07;;;;;;;1.80;1.25;;;;;;;17.58;nan;-24306.75;5073486;28;20181;-69
2022/10/14 08:08:32;;;;;;;1.15;1.05;;;;;;;17.72;nan;-24310.66;5091779;28;20200;-68
2022/10/14 08:11:10;;;;;;;1.30;1.20;;;;;;;17.80;nan;-24312.91;5091648;28;20489;-69
2022/10/14 08:13:37;;;;;;;1.05;1.00;;;;;;;17.91;nan;-24315.97;5091927;28;20154;-69
2022/10/14 08:16:37;;;;;;;1.23;1.13;;;;;;;17.99;nan;-24318.19;5091829;28;20173;-69
2022/10/14 08:19:05;;;;;;;1.40;1.00;;;;;;;17.84;nan;-24314.00;5086636;28;20613;-69
2022/10/14 08:21:31;;;;;;;1.08;1.02;;;;;;;17.66;nan;-24309.00;5091836;28;20177;-69
2022/10/14 08:23:57;;;;;;;1.23;1.13;;;;;;;17.95;nan;-24317.09;5092478;28;20781;-68
2022/10/14 08:26:29;;;;;;;1.67;1.17;;;;;;;17.86;nan;-24314.44;5092461;28;20172;-70
2022/10/14 08:28:56;;;;;;;1.48;1.20;;;;;;;18.15;nan;-24322.53;5091811;28;20189;-70
2022/10/14 08:31:21;;;;;;;0.90;0.90;;;;;;;17.94;nan;-24316.66;5091638;28;20260;-69
2022/10/14 08:33:47;;;;;;;2.15;1.25;;;;;;;17.53;nan;-24305.34;5091785;28;20314;-69
2022/10/14 08:36:13;;;;;;;2.85;0.90;;;;;;;17.38;nan;-24301.31;5091817;28;20307;-69
2022/10/14 08:38:38;;;;;;;1.45;1.10;;;;;;;17.50;nan;-24304.66;5091696;28;20185;-68
2022/10/14 08:41:15;;;;;;;1.77;1.20;;;;;;;17.82;nan;-24313.47;5091380;28;20173;-69
2022/10/14 08:43:47;;;;;;;1.20;1.10;;;;;;;17.81;nan;-24313.19;5092018;28;20645;-70
2022/10/14 08:46:34;;;;;;;1.25;1.15;;;;;;;18.24;nan;-24325.03;5089844;28;20180;-68
2022/10/14 08:49:19;;;;;;;1.20;1.10;;;;;;;18.29;nan;-24326.28;5091377;28;20193;-69
2022/10/14 08:51:50;;;;;;;0.98;0.93;;;;;;;18.45;nan;-24330.75;5091052;28;20169;-68
2022/10/14 08:54:32;;;;;;;1.20;1.05;;;;;;;18.14;nan;-24322.25;5090858;28;20184;-68
2022/10/14 08:56:58;;;;;;;1.27;1.00;;;;;;;18.10;nan;-24321.13;5091112;28;20187;-68
2022/10/14 08:59:25;;;;;;;0.98;0.88;;;;;;;17.99;nan;-24318.06;5073020;28;20560;-68
2022/10/14 09:01:55;;;;;;;1.20;1.10;;;;;;;18.35;nan;-24327.94;5072879;28;20177;-68
2022/10/14 09:04:21;;;;;;;1.05;1.00;;;;;;;18.64;nan;-24335.91;5090912;28;20169;-70
2022/10/14 09:06:49;;;;;;;1.60;1.20;;;;;;;19.11;nan;-24348.97;5090866;28;20174;-68
2022/10/14 09:09:40;;;;;;;2.20;1.20;;;;;;;18.87;nan;-24342.31;5090898;28;20189;-69
2022/10/14 09:12:11;;;;;;;1.63;1.20;;;;;;;19.13;nan;-24349.41;5091154;28;20192;-69
2022/10/14 09:14:43;;;;;;;1.73;1.35;;;;;;;19.12;nan;-24349.25;5090763;28;20161;-69
2022/10/14 09:17:18;;;;;;;1.50;1.10;;;;;;;17.07;nan;-24292.81;5089983;28;20169;-68
2022/10/14 09:20:07;;;;;;;1.27;1.17;;;;;;;18.17;nan;-24323.06;5091620;28;20165;-69
2022/10/14 09:22:33;;;;;;;1.25;1.10;;;;;;;18.07;nan;-24320.28;5077896;28;20309;-69
2022/10/14 09:25:00;;;;;;;2.28;1.20;;;;;;;18.49;nan;-24332.00;5091220;28;20252;-69
2022/10/14 09:27:28;;;;;;;1.20;1.10;;;;;;;18.57;nan;-24333.94;5091267;28;20170;-69
2022/10/14 09:29:57;;;;;;;1.10;1.00;;;;;;;19.24;nan;-24352.59;5091268;28;20288;-69
2022/10/14 09:32:38;;;;;;;1.20;1.10;;;;;;;19.08;nan;-24348.16;5076289;28;20182;-69
2022/10/14 09:35:32;;;;;;;1.58;1.20;;;;;;;19.00;nan;-24345.91;5094805;28;20170;-69
2022/10/14 09:37:58;;;;;;;1.50;1.10;;;;;;;19.10;nan;-24348.69;5093966;28;20205;-69
2022/10/14 09:40:38;;;;;;;1.10;1.00;;;;;;;19.82;nan;-24368.47;5094544;28;20169;-68
2022/10/14 09:43:09;;;;;;;4.82;1.33;;;;;;;20.21;nan;-24379.16;5094546;28;20162;-69
2022/10/14 09:45:50;;;;;;;1.10;1.00;;;;;;;20.40;nan;-24384.28;5094315;28;20170;-68
2022/10/14 09:48:57;;;;;;;1.52;1.27;;;;;;;20.19;nan;-24378.59;5094149;28;20181;-70
2022/10/14 09:51:28;;;;;;;2.70;1.00;;;;;;;20.45;nan;-24385.81;4992425;28;20633;-68
2022/10/14 09:53:56;;;;;;;1.00;0.90;;;;;;;20.79;nan;-24395.13;5076167;28;20188;-70
2022/10/14 09:56:48;;;;;;;1.13;1.00;;;;;;;19.98;nan;-24372.75;5094116;28;20176;-68
2022/10/14 09:59:19;;;;;;;2.25;1.10;;;;;;;19.66;nan;-24364.00;5090420;28;20188;-69
2022/10/14 10:01:52;;;;;;;0.93;0.93;;;;;;;19.76;nan;-24366.78;5094234;28;20256;-69
2022/10/14 10:04:40;;;;;;;1.10;0.90;;;;;;;20.05;nan;-24374.72;5093937;28;20226;-69
2022/10/14 10:07:26;;;;;;;1.00;0.90;;;;;;;19.87;nan;-24369.84;5094081;28;20162;-68
2022/10/14 10:09:57;;;;;;;1.35;0.90;;;;;;;20.84;nan;-24396.50;5075566;28;20193;-70
2022/10/14 10:12:29;;;;;;;1.63;1.10;;;;;;;20.57;nan;-24389.16;5094008;28;20170;-68
2022/10/14 10:14:57;;;;;;;0.80;0.80;;;;;;;20.51;nan;-24387.50;5094151;28;20177;-69
2022/10/14 10:17:25;;;;;;;3.05;1.10;;;;;;;20.54;nan;-24388.19;5093454;28;20648;-69
2022/10/14 10:20:06;;;;;;;1.13;1.00;;;;;;;20.96;nan;-24399.84;5089810;28;20193;-70
2022/10/14 10:22:37;;;;;;;1.10;0.80;;;;;;;20.87;nan;-24397.34;5093992;28;20225;-70
2022/10/14 10:25:03;;;;;;;0.98;0.90;;;;;;;20.85;nan;-24396.66;5075564;28;20181;-70
2022/10/14 10:27:35;;;;;;;1.30;1.00;;;;;;;21.09;nan;-24403.31;5095732;28;20646;-69
2022/10/14 10:30:35;;;;;;;1.10;0.88;;;;;;;21.29;nan;-24408.72;5093757;28;20200;-69
2022/10/14 10:33:25;;;;;;;1.92;1.10;;;;;;;21.19;nan;-24405.94;5079207;28;20280;-69
2022/10/14 10:36:07;;;;;;;1.20;1.10;;;;;;;20.16;nan;-24377.91;5093678;28;20185;-69
2022/10/14 10:39:00;;;;;;;1.00;0.90;;;;;;;21.11;nan;-24404.00;5093803;28;20249;-69
2022/10/14 10:41:47;;;;;;;0.93;0.93;;;;;;;21.12;nan;-24404.13;5093648;28;20629;-68
2022/10/14 10:44:30;;;;;;;1.10;1.00;;;;;;;21.26;nan;-24407.88;5093089;28;20227;-69
2022/10/14 10:47:13;;;;;;;1.48;1.05;;;;;;;21.47;nan;-24413.84;5093045;28;20256;-69
2022/10/14 10:49:54;;;;;;;0.90;0.90;;;;;;;21.10;nan;-24403.72;5093292;28;20211;-69
2022/10/14 10:52:39;;;;;;;2.00;1.13;;;;;;;21.72;nan;-24420.63;5093286;28;20226;-69
2022/10/14 10:55:30;;;;;;;1.42;1.20;;;;;;;21.98;nan;-24427.69;5093159;28;20201;-69
2022/10/14 10:57:55;;;;;;;1.33;0.85;;;;;;;22.09;nan;-24430.75;5093254;28;20165;-68
2022/10/14 11:00:22;;;;;;;1.10;1.00;;;;;;;18.68;nan;-24337.00;5092986;28;20198;-68
2022/10/14 11:02:56;;;;;;;0.90;0.82;;;;;;;21.73;nan;-24420.91;5093204;28;20261;-68
2022/10/14 11:05:59;;;;;;;1.00;1.00;;;;;;;22.17;nan;-24432.97;5095370;28;20216;-68
2022/10/14 11:12:01;;;;;;;1.52;1.42;;;;;;;21.06;nan;-24402.59;5058068;28;20673;-74
2022/10/14 11:14:32;;;;;;;1.08;1.00;;;;;;;21.06;nan;-24402.47;5093353;28;20166;-71
2022/10/14 11:17:16;;;;;;;1.00;1.00;;;;;;;21.15;nan;-24404.97;5093125;28;20698;-72
2022/10/14 11:19:47;;;;;;;1.20;1.10;;;;;;;21.44;nan;-24412.88;5092951;28;20215;-71
2022/10/14 11:22:43;;;;;;;1.55;1.00;;;;;;;21.28;nan;-24408.56;5092750;28;20234;-71
2022/10/14 11:25:43;;;;;;;1.00;0.90;;;;;;;21.10;nan;-24403.56;5093037;28;20177;-72
2022/10/14 11:28:21;;;;;;;1.65;1.05;;;;;;;21.42;nan;-24412.31;5092799;28;20180;-73
2022/10/14 11:31:25;;;;;;;1.35;1.20;;;;;;;21.57;nan;-24416.63;5092897;28;20196;-71
2022/10/14 11:34:07;;;;;;;1.10;1.00;;;;;;;21.64;nan;-24418.28;5048858;28;20196;-70
2022/10/14 11:37:06;;;;;;;2.10;1.08;;;;;;;21.62;nan;-24417.84;5092257;28;20173;-71
2022/10/14 11:39:40;;;;;;;1.30;1.20;;;;;;;21.70;nan;-24420.06;5093015;28;20177;-72
2022/10/14 11:42:23;;;;;;;1.10;1.00;;;;;;;21.79;nan;-24422.44;5092393;28;20235;-70
2022/10/14 11:45:00;;;;;;;1.30;1.13;;;;;;;21.63;nan;-24418.13;5092137;28;20196;-71
2022/10/14 11:47:33;;;;;;;1.17;1.08;;;;;;;20.99;nan;-24400.66;5093398;28;20173;-68
2022/10/14 11:50:17;;;;;;;1.52;1.13;;;;;;;21.64;nan;-24418.28;5092511;28;20728;-72
2022/10/14 11:52:55;;;;;;;1.17;1.08;;;;;;;21.35;nan;-24410.38;5092881;28;20177;-71
2022/10/14 11:55:22;;;;;;;1.45;1.08;;;;;;;21.61;nan;-24417.59;5092037;28;20192;-69
2022/10/14 11:57:58;;;;;;;1.63;1.25;;;;;;;21.33;nan;-24409.97;5091979;28;20173;-69
2022/10/14 12:00:28;;;;;;;1.27;1.17;;;;;;;21.01;nan;-24401.22;5092365;28;20513;-69
2022/10/14 12:03:09;;;;;;;1.17;1.00;;;;;;;21.17;nan;-24405.38;5092393;28;20169;-69